Time;durP1;ratioP1;P1;durP2;ratioP2;P2;SDS_P1;SDS_P2;PMS_P1;PMS_P2;Temp;Humidity;BMP_temperature;BMP_pressure;BME280_temperature;BME280_humidity;BME280_pressure;Samples;Min_cycle;Max_cycle;Signal;HPM_P1;HPM_P2
2021/07/25 00:02:26;;;;;;;15.55;12.65;;;;;;;22.64;50.38;100298.34;4957977;28;20055;-65
2021/07/25 00:04:55;;;;;;;14.13;12.20;;;;;;;22.52;50.91;100299.78;4972918;28;20057;-65
2021/07/25 00:07:22;;;;;;;17.95;12.27;;;;;;;22.56;50.53;100295.75;4972212;28;20555;-66
2021/07/25 00:09:49;;;;;;;15.38;13.38;;;;;;;22.43;51.24;100293.63;4972619;28;20570;-66
2021/07/25 00:12:16;;;;;;;14.65;13.00;;;;;;;22.45;51.11;100285.38;4982673;28;20110;-65
2021/07/25 00:14:44;;;;;;;13.98;12.20;;;;;;;22.47;51.13;100280.69;4972011;28;20486;-66
2021/07/25 00:17:11;;;;;;;17.42;12.30;;;;;;;;;;4955640;28;20051;-66
2021/07/25 00:19:38;;;;;;;16.38;11.68;;;;;;;22.41;51.33;100276.84;4982895;28;20097;-65
2021/07/25 00:22:06;;;;;;;15.82;12.80;;;;;;;22.34;51.35;100265.16;4970523;28;20145;-65
2021/07/25 00:24:35;;;;;;;16.17;13.45;;;;;;;22.26;51.85;100265.22;4949556;28;20059;-65
2021/07/25 00:27:04;;;;;;;16.13;12.95;;;;;;;22.27;51.40;100266.88;4941767;28;20051;-65
2021/07/25 00:29:31;;;;;;;17.38;13.07;;;;;;;22.12;52.16;100252.53;4956903;28;20583;-64
2021/07/25 00:32:02;;;;;;;17.83;12.80;;;;;;;22.09;52.09;100251.00;4967507;28;20134;-66
2021/07/25 00:34:31;;;;;;;18.98;12.73;;;;;;;22.05;52.41;100255.03;4971810;28;20134;-65
2021/07/25 00:36:59;;;;;;;14.73;12.23;;;;;;;21.99;52.37;100250.38;4943133;28;20571;-66
2021/07/25 00:39:26;;;;;;;15.90;13.52;;;;;;;21.93;52.28;100235.84;4957404;28;20062;-66
2021/07/25 00:41:54;;;;;;;17.48;12.77;;;;;;;21.95;52.44;100224.94;4972456;28;20059;-66
2021/07/25 00:44:21;;;;;;;19.67;14.10;;;;;;;21.92;52.31;100230.63;4962335;28;20465;-66
2021/07/25 00:46:57;;;;;;;17.83;13.25;;;;;;;21.79;52.90;100233.84;4971942;28;20524;-65
2021/07/25 00:49:25;;;;;;;17.27;12.60;;;;;;;21.88;52.90;100234.66;4956066;28;20051;-65
2021/07/25 00:51:53;;;;;;;15.55;12.77;;;;;;;21.72;52.94;100220.31;4961773;28;20055;-65
2021/07/25 00:54:21;;;;;;;19.80;11.63;;;;;;;21.68;53.26;100220.84;4945571;28;20418;-66
2021/07/25 00:56:48;;;;;;;14.38;12.55;;;;;;;21.67;53.44;100213.81;4966144;28;20141;-65
2021/07/25 00:59:16;;;;;;;19.20;13.45;;;;;;;21.57;53.63;100219.38;4969512;28;20046;-66
2021/07/25 01:01:43;;;;;;;18.23;12.50;;;;;;;21.59;54.03;100224.53;4960131;28;20087;-66
2021/07/25 01:04:41;;;;;;;22.95;13.43;;;;;;;21.49;54.14;100214.03;4971050;28;20054;-65
2021/07/25 01:07:18;;;;;;;21.02;13.57;;;;;;;21.49;54.08;100214.03;4957202;28;20047;-67
2021/07/25 01:10:04;;;;;;;19.73;12.95;;;;;;;21.39;54.59;100224.06;4962870;28;20047;-65
2021/07/25 01:12:44;;;;;;;17.52;12.95;;;;;;;21.36;54.52;100227.94;4968371;28;20051;-65
2021/07/25 01:15:20;;;;;;;17.35;13.93;;;;;;;21.26;54.83;100227.25;4963079;28;20505;-65
2021/07/25 01:17:47;;;;;;;18.15;13.45;;;;;;;21.19;55.10;100228.94;4961344;28;20401;-66
2021/07/25 01:20:14;;;;;;;17.77;12.73;;;;;;;21.15;55.48;100223.06;4970952;28;20055;-67
2021/07/25 01:22:44;;;;;;;17.95;13.23;;;;;;;21.28;54.88;100230.59;4965066;28;20053;-65
2021/07/25 01:25:13;;;;;;;19.88;12.55;;;;;;;21.26;55.18;100231.78;4940987;28;20272;-65
2021/07/25 01:27:44;;;;;;;21.38;13.10;;;;;;;21.24;55.24;100232.75;4954399;28;20046;-66
2021/07/25 01:30:14;;;;;;;19.60;13.30;;;;;;;21.22;55.42;100233.97;4970433;28;20051;-65
2021/07/25 01:32:42;;;;;;;16.65;13.38;;;;;;;21.15;55.24;100235.63;4949230;28;20289;-65
2021/07/25 01:35:14;;;;;;;16.25;13.27;;;;;;;20.97;55.89;100231.28;4940438;28;20069;-65
2021/07/25 01:37:42;;;;;;;18.17;13.68;;;;;;;20.88;56.21;100229.59;4962969;28;20133;-65
2021/07/25 01:40:18;;;;;;;17.48;13.65;;;;;;;20.96;56.06;100216.22;4945902;28;20043;-65
2021/07/25 01:42:46;;;;;;;18.73;13.18;;;;;;;20.87;56.17;100221.75;4939828;28;20058;-65
2021/07/25 01:45:13;;;;;;;20.65;13.23;;;;;;;20.87;56.20;100222.59;4967675;28;20078;-66
2021/07/25 01:47:41;;;;;;;17.52;13.60;;;;;;;20.78;56.40;100233.44;4940974;29;20130;-66
2021/07/25 01:50:09;;;;;;;21.50;13.07;;;;;;;20.81;56.38;100223.25;4975211;28;20539;-66
2021/07/25 01:52:36;;;;;;;15.25;12.13;;;;;;;20.81;56.38;100203.69;4952686;28;20058;-67
2021/07/25 01:55:04;;;;;;;16.75;12.68;;;;;;;20.84;56.09;100206.03;4960418;28;20058;-65
2021/07/25 01:57:31;;;;;;;19.00;12.88;;;;;;;20.80;56.21;100215.38;4959041;28;20059;-66
2021/07/25 01:59:58;;;;;;;15.18;12.93;;;;;;;20.74;56.31;100209.69;4958686;28;20055;-66
2021/07/25 02:02:25;;;;;;;20.48;11.88;;;;;;;20.79;56.35;100213.72;4966010;28;20093;-66
2021/07/25 02:04:54;;;;;;;18.27;12.75;;;;;;;20.78;56.33;100215.56;5000784;22;20113;-71
2021/07/25 02:07:21;;;;;;;20.58;13.55;;;;;;;20.73;56.67;100221.41;5032919;28;20071;-70
2021/07/25 02:09:48;;;;;;;18.88;13.18;;;;;;;20.71;56.88;100223.44;5036043;28;20110;-71
2021/07/25 02:12:16;;;;;;;17.95;11.93;;;;;;;20.79;56.58;100219.91;5034086;28;20125;-70
2021/07/25 02:14:43;;;;;;;21.73;12.82;;;;;;;20.73;56.73;100221.41;5036023;28;20129;-71
2021/07/25 02:17:10;;;;;;;17.27;12.18;;;;;;;20.62;57.05;100221.72;5002653;28;20140;-71
2021/07/25 02:19:37;;;;;;;17.90;13.10;;;;;;;20.72;56.73;100224.25;5002830;28;20060;-71
2021/07/25 02:22:05;;;;;;;20.50;12.68;;;;;;;20.72;56.86;100217.06;4992353;28;20348;-72
2021/07/25 02:24:32;;;;;;;17.05;12.63;;;;;;;20.60;57.50;100218.38;5004916;28;20559;-71
2021/07/25 02:27:00;;;;;;;22.17;13.23;;;;;;;20.60;57.18;100221.06;5013232;28;20077;-72
2021/07/25 02:29:27;;;;;;;20.08;14.20;;;;;;;20.56;57.43;100209.00;4992421;28;20526;-70
2021/07/25 02:31:54;;;;;;;21.63;13.60;;;;;;;20.70;56.90;100212.88;5017553;28;21058;-71
2021/07/25 02:34:21;;;;;;;19.55;13.15;;;;;;;20.69;56.91;100214.72;5016438;28;20092;-71
2021/07/25 02:36:48;;;;;;;17.45;13.25;;;;;;;20.59;57.26;100214.03;5014971;28;20160;-72
2021/07/25 02:39:16;;;;;;;19.45;14.20;;;;;;;20.63;57.32;100211.88;5011375;28;20064;-71
2021/07/25 02:41:43;;;;;;;22.08;12.88;;;;;;;20.52;57.60;100210.34;5013203;28;20144;-70
2021/07/25 02:44:10;;;;;;;19.77;13.60;;;;;;;20.43;58.02;100209.44;5011132;28;20060;-71
2021/07/25 02:46:37;;;;;;;19.30;13.32;;;;;;;20.42;58.34;100207.78;5008972;28;20168;-71
2021/07/25 02:49:04;;;;;;;17.48;12.75;;;;;;;20.33;58.58;100208.78;5006430;28;20053;-71
2021/07/25 02:51:31;;;;;;;19.15;13.63;;;;;;;20.29;58.68;100206.59;4982908;28;20041;-72
2021/07/25 02:53:59;;;;;;;19.55;12.48;;;;;;;20.26;58.40;100209.56;5007893;28;20062;-71
2021/07/25 02:56:26;;;;;;;16.92;12.77;;;;;;;20.25;59.01;100214.09;4985570;28;20072;-70
2021/07/25 02:58:53;;;;;;;16.83;12.70;;;;;;;20.24;58.96;100217.78;5016462;28;20049;-71
2021/07/25 03:01:20;;;;;;;25.88;13.18;;;;;;;20.21;59.13;100210.06;4995455;28;20779;-71
2021/07/25 03:03:48;;;;;;;20.75;13.50;;;;;;;20.10;59.76;100218.41;5016261;28;20496;-71
2021/07/25 03:06:15;;;;;;;21.45;13.38;;;;;;;20.15;59.39;100216.06;5014996;28;20055;-69
2021/07/25 03:08:42;;;;;;;17.70;12.85;;;;;;;20.09;59.93;100214.06;5016079;28;20068;-70
2021/07/25 03:11:10;;;;;;;22.92;12.95;;;;;;;20.06;60.18;100214.38;4990695;28;20056;-70
2021/07/25 03:13:37;;;;;;;19.98;13.32;;;;;;;20.04;60.34;100217.22;5016494;28;20531;-71
2021/07/25 03:16:06;;;;;;;17.38;12.95;;;;;;;20.08;60.10;100220.38;5004938;28;20062;-72
2021/07/25 03:18:33;;;;;;;16.73;12.73;;;;;;;20.01;60.30;100222.03;4996260;28;20062;-70
2021/07/25 03:21:02;;;;;;;19.23;12.60;;;;;;;19.94;60.79;100229.84;5008005;28;20148;-72
2021/07/25 03:23:29;;;;;;;19.80;13.60;;;;;;;19.93;60.87;100226.34;4986428;28;20216;-71
2021/07/25 03:25:56;;;;;;;14.70;12.82;;;;;;;20.02;60.77;100237.91;5021408;28;20515;-72
2021/07/25 03:28:24;;;;;;;16.95;12.90;;;;;;;19.90;61.43;100237.38;5027958;28;20167;-71
2021/07/25 03:30:51;;;;;;;20.30;14.00;;;;;;;19.96;61.23;100228.69;5005893;28;20071;-71
2021/07/25 03:33:19;;;;;;;16.27;13.32;;;;;;;19.98;61.18;100236.53;5019528;28;20395;-69
2021/07/25 03:35:47;;;;;;;20.42;13.25;;;;;;;19.93;61.56;100236.19;5004223;28;20056;-71
2021/07/25 03:38:15;;;;;;;19.08;13.25;;;;;;;20.00;61.55;100236.41;4987549;28;20058;-72
2021/07/25 03:40:44;;;;;;;17.77;13.90;;;;;;;19.90;61.80;100241.84;4973195;28;20643;-71
2021/07/25 03:43:13;;;;;;;17.08;13.48;;;;;;;20.10;61.29;100239.78;4997453;28;20524;-72
2021/07/25 03:45:42;;;;;;;17.30;13.32;;;;;;;20.10;61.51;100232.59;5001462;28;20129;-71
2021/07/25 03:48:09;;;;;;;23.95;13.40;;;;;;;20.02;61.82;100234.41;4987643;28;20058;-71
2021/07/25 03:50:37;;;;;;;16.92;13.30;;;;;;;20.03;61.69;100236.06;4995504;28;20504;-71
2021/07/25 03:53:05;;;;;;;20.58;13.85;;;;;;;19.98;62.00;100232.03;4995707;28;20494;-71
2021/07/25 03:55:34;;;;;;;16.10;12.55;;;;;;;19.96;62.15;100236.72;4999589;28;20045;-71
2021/07/25 03:58:02;;;;;;;19.02;13.23;;;;;;;20.05;61.95;100236.75;4994748;28;20072;-72
2021/07/25 04:00:29;;;;;;;19.55;13.30;;;;;;;20.06;62.08;100241.09;5000351;28;20534;-71
2021/07/25 04:02:57;;;;;;;21.65;13.73;;;;;;;20.03;62.19;100239.56;4998075;28;20081;-72
2021/07/25 04:05:25;;;;;;;24.00;13.75;;;;;;;20.04;62.40;100243.94;5015049;28;20139;-71
2021/07/25 04:07:52;;;;;;;17.42;13.52;;;;;;;20.06;62.23;100239.25;5005795;28;20163;-71
2021/07/25 04:10:19;;;;;;;23.25;13.77;;;;;;;20.10;62.22;100234.44;4997809;28;20042;-71
2021/07/25 04:12:46;;;;;;;23.08;14.15;;;;;;;20.15;62.30;100234.78;5018710;28;20128;-71
2021/07/25 04:15:14;;;;;;;15.45;12.70;;;;;;;20.16;62.28;100233.78;5014263;28;20058;-70
2021/07/25 04:17:41;;;;;;;21.27;13.38;;;;;;;20.20;62.32;100227.94;5000910;28;20045;-71
2021/07/25 04:20:09;;;;;;;19.83;13.00;;;;;;;20.23;62.09;100226.78;4988737;28;20045;-71
2021/07/25 04:22:37;;;;;;;18.52;13.80;;;;;;;20.19;62.42;100222.78;5015827;28;20137;-71
2021/07/25 04:25:06;;;;;;;16.13;12.65;;;;;;;20.19;62.52;100228.94;4994786;28;20321;-72
2021/07/25 04:27:33;;;;;;;17.48;12.63;;;;;;;20.30;62.13;100235.00;5004779;28;20668;-71
2021/07/25 04:30:01;;;;;;;14.90;12.23;;;;;;;20.35;62.04;100227.31;5005377;28;20083;-71
2021/07/25 04:32:28;;;;;;;18.52;13.25;;;;;;;20.42;62.04;100223.84;5007517;28;20054;-71
2021/07/25 04:34:55;;;;;;;22.95;14.13;;;;;;;20.53;61.74;100222.69;5007641;28;20049;-71
2021/07/25 04:37:25;;;;;;;23.65;12.85;;;;;;;20.67;61.13;100227.44;5018598;28;20064;-70
2021/07/25 04:39:52;;;;;;;23.90;13.07;;;;;;;20.70;61.20;100226.25;5023251;28;20160;-70
2021/07/25 04:42:25;;;;;;;19.80;13.95;;;;;;;20.67;61.28;100226.59;5009238;28;20180;-70
2021/07/25 04:45:02;;;;;;;19.23;13.02;;;;;;;20.91;60.69;100228.44;5023331;28;20494;-71
2021/07/25 04:47:40;;;;;;;17.33;13.60;;;;;;;20.85;60.50;100229.94;4998733;28;20715;-71
2021/07/25 04:50:13;;;;;;;20.80;13.32;;;;;;;20.85;60.53;100227.28;5000160;28;20049;-72
2021/07/25 04:52:41;;;;;;;18.92;12.70;;;;;;;21.24;59.65;100226.56;4986197;28;20057;-72
2021/07/25 04:55:10;;;;;;;19.75;13.77;;;;;;;21.14;59.54;100224.09;5001831;28;20052;-71
2021/07/25 04:57:44;;;;;;;19.80;13.77;;;;;;;20.90;60.58;100224.09;5013386;28;20081;-70
2021/07/25 05:00:13;;;;;;;19.50;12.48;;;;;;;20.83;60.91;100231.09;4995778;28;20500;-71
2021/07/25 05:02:42;;;;;;;21.75;13.68;;;;;;;20.80;61.23;100226.09;5009447;28;20133;-72
2021/07/25 05:05:10;;;;;;;21.77;13.98;;;;;;;20.80;61.08;100226.09;5008940;28;20042;-71
2021/07/25 05:07:41;;;;;;;18.20;13.27;;;;;;;20.77;61.30;100227.25;4995536;28;20060;-71
2021/07/25 05:10:10;;;;;;;16.13;12.32;;;;;;;20.79;61.24;100230.59;5007890;28;20095;-70
2021/07/25 05:12:40;;;;;;;16.05;13.10;;;;;;;20.83;61.27;100229.25;5021260;28;20132;-70
2021/07/25 05:15:15;;;;;;;17.05;13.00;;;;;;;20.91;61.39;100236.47;4989580;28;20452;-70
2021/07/25 05:17:45;;;;;;;17.27;13.80;;;;;;;20.82;61.47;100229.44;5005748;28;20065;-71
2021/07/25 05:20:16;;;;;;;23.08;13.40;;;;;;;20.86;61.52;100231.63;5020414;28;20522;-71
2021/07/25 05:22:57;;;;;;;18.77;13.80;;;;;;;20.98;60.85;100242.81;4996285;28;20056;-72
2021/07/25 05:25:24;;;;;;;18.88;13.95;;;;;;;21.11;60.93;100232.44;4988689;28;20050;-70
2021/07/25 05:27:53;;;;;;;21.30;13.35;;;;;;;21.33;59.86;100236.31;4992093;28;20145;-71
2021/07/25 05:30:22;;;;;;;21.63;13.15;;;;;;;21.55;59.06;100236.59;5006968;28;20095;-71
2021/07/25 05:32:50;;;;;;;18.77;13.60;;;;;;;21.46;59.63;100235.78;5007769;28;20053;-71
2021/07/25 05:35:17;;;;;;;18.30;13.07;;;;;;;21.46;59.66;100241.13;5006341;28;20055;-70
2021/07/25 05:37:45;;;;;;;16.75;13.35;;;;;;;21.39;59.91;100245.50;5007456;28;20133;-71
2021/07/25 05:40:13;;;;;;;18.38;12.93;;;;;;;21.59;59.64;100235.25;5010102;28;20117;-70
2021/07/25 05:42:41;;;;;;;22.98;13.77;;;;;;;22.12;58.07;100248.00;4995999;28;20045;-72
2021/07/25 05:45:10;;;;;;;20.70;12.63;;;;;;;24.04;52.82;100241.56;4990256;28;20061;-72
2021/07/25 05:47:38;;;;;;;15.88;12.68;;;;;;;24.28;51.17;100243.97;4994173;28;20115;-71
2021/07/25 05:50:06;;;;;;;17.27;12.60;;;;;;;24.84;50.25;100243.34;4995305;28;20050;-72
2021/07/25 05:52:50;;;;;;;16.77;12.32;;;;;;;25.58;48.28;100246.47;4992083;28;20072;-72
2021/07/25 05:55:22;;;;;;;15.18;12.90;;;;;;;27.30;44.20;100243.56;5018253;28;20542;-72
2021/07/25 05:57:49;;;;;;;18.95;12.63;;;;;;;28.45;40.84;100250.13;4997440;28;20054;-71
2021/07/25 06:00:17;;;;;;;17.20;11.55;;;;;;;29.16;39.50;100248.22;5025160;28;20152;-72
2021/07/25 06:02:51;;;;;;;17.17;12.02;;;;;;;30.53;36.60;100259.69;5005046;28;20065;-71
2021/07/25 06:05:19;;;;;;;17.20;12.40;;;;;;;31.01;36.02;100258.81;5011360;28;20399;-71
2021/07/25 06:07:46;;;;;;;14.23;11.80;;;;;;;31.28;35.36;100251.06;4995802;28;20716;-71
2021/07/25 06:10:13;;;;;;;15.02;11.98;;;;;;;31.67;34.18;100238.66;5003743;28;20516;-72
2021/07/25 06:12:40;;;;;;;12.98;11.60;;;;;;;31.70;34.35;100237.31;5018141;28;20053;-72
2021/07/25 06:15:09;;;;;;;12.90;11.55;;;;;;;31.92;33.93;100232.13;5008167;28;20054;-72
2021/07/25 06:17:36;;;;;;;14.10;11.85;;;;;;;32.06;33.78;100230.78;5000415;28;20073;-71
2021/07/25 06:20:04;;;;;;;17.50;12.30;;;;;;;32.55;32.72;100231.19;4976641;28;20060;-72
2021/07/25 06:22:46;;;;;;;15.70;11.32;;;;;;;33.74;31.17;100222.78;5016002;28;20050;-73
2021/07/25 06:25:18;;;;;;;14.00;12.57;;;;;;;34.22;30.00;100229.41;5000682;28;20068;-72
2021/07/25 06:27:45;;;;;;;15.02;12.27;;;;;;;33.66;30.50;100227.84;5022060;28;20125;-72
2021/07/25 06:30:12;;;;;;;17.20;12.98;;;;;;;33.31;31.46;100222.69;4975787;28;20144;-72
2021/07/25 06:32:55;;;;;;;13.55;12.10;;;;;;;33.59;30.90;100228.03;5003263;28;20046;-72
2021/07/25 06:35:25;;;;;;;18.13;12.27;;;;;;;33.91;30.08;100235.53;5005437;28;20064;-71
2021/07/25 06:37:53;;;;;;;14.13;12.63;;;;;;;34.26;29.96;100235.16;4998235;28;20364;-73
2021/07/25 06:40:20;;;;;;;14.52;12.63;;;;;;;32.54;32.32;100239.63;4999100;28;20058;-71
2021/07/25 06:42:47;;;;;;;15.00;11.95;;;;;;;32.18;32.97;100231.56;5019993;28;20061;-70
2021/07/25 06:45:14;;;;;;;18.60;13.05;;;;;;;32.89;31.82;100236.72;5006503;28;20144;-71
2021/07/25 06:47:46;;;;;;;14.60;11.82;;;;;;;32.68;32.46;100232.78;5002462;28;20053;-71
2021/07/25 06:50:13;;;;;;;18.15;12.07;;;;;;;32.11;33.24;100225.44;5015203;28;20057;-73
2021/07/25 06:52:40;;;;;;;13.55;12.23;;;;;;;32.77;32.11;100239.50;4978886;28;20518;-71
2021/07/25 06:55:08;;;;;;;22.65;12.18;;;;;;;33.06;31.68;100225.84;4995057;28;20167;-71
2021/07/25 06:57:35;;;;;;;15.75;12.60;;;;;;;32.60;32.35;100236.75;5018158;28;20527;-72
2021/07/25 07:00:04;;;;;;;17.73;12.95;;;;;;;32.69;32.74;100242.63;5017057;28;20054;-72
2021/07/25 07:02:50;;;;;;;14.57;12.93;;;;;;;33.05;31.41;100240.53;5019030;28;20080;-73
2021/07/25 07:05:23;;;;;;;15.77;11.63;;;;;;;33.70;30.43;100223.53;5017561;28;20059;-71
2021/07/25 07:07:52;;;;;;;14.77;12.23;;;;;;;33.11;31.75;100234.94;4986491;28;20065;-73
2021/07/25 07:10:22;;;;;;;14.23;12.45;;;;;;;33.93;30.27;100214.28;5027670;28;20049;-72
2021/07/25 07:12:50;;;;;;;15.15;12.43;;;;;;;33.87;30.88;100216.13;5013941;28;20046;-72
2021/07/25 07:15:18;;;;;;;14.50;12.00;;;;;;;33.39;30.73;100222.25;4986889;28;20140;-72
2021/07/25 07:17:50;;;;;;;19.45;12.68;;;;;;;33.33;31.46;100213.19;5015355;28;20199;-73
2021/07/25 07:20:17;;;;;;;13.05;11.75;;;;;;;33.26;31.82;100213.34;5004233;28;20081;-71
2021/07/25 07:22:52;;;;;;;14.45;12.57;;;;;;;32.84;31.91;100223.00;4995282;28;20041;-72
2021/07/25 07:25:20;;;;;;;13.10;11.80;;;;;;;32.69;32.21;100224.41;5014904;28;20064;-72
2021/07/25 07:27:48;;;;;;;17.60;12.25;;;;;;;34.13;30.52;100225.47;5025401;28;20064;-72
2021/07/25 07:30:15;;;;;;;14.50;12.15;;;;;;;35.96;27.43;100228.91;4990185;28;20108;-72
2021/07/25 07:32:42;;;;;;;13.45;12.15;;;;;;;36.67;26.29;100228.31;4983226;28;20041;-71
2021/07/25 07:35:09;;;;;;;13.05;11.18;;;;;;;36.13;26.79;100225.97;5002493;28;20415;-72
2021/07/25 07:37:37;;;;;;;14.27;12.20;;;;;;;35.61;27.87;100228.72;5000789;28;20144;-72
2021/07/25 07:40:04;;;;;;;15.10;11.75;;;;;;;35.31;28.10;100223.88;5008521;28;20053;-71
2021/07/25 07:42:32;;;;;;;12.82;11.52;;;;;;;33.33;30.54;100223.28;5021366;28;20089;-71
2021/07/25 07:45:04;;;;;;;13.93;12.48;;;;;;;31.74;33.58;100219.47;5006844;28;20054;-71
2021/07/25 07:47:31;;;;;;;14.00;12.52;;;;;;;31.29;34.26;100219.25;5014483;28;20171;-70
2021/07/25 07:49:58;;;;;;;14.93;12.77;;;;;;;31.85;33.03;100217.81;4999395;28;20054;-71
2021/07/25 07:52:25;;;;;;;12.40;11.10;;;;;;;33.37;30.63;100218.94;5025934;28;20188;-71
2021/07/25 07:54:53;;;;;;;19.42;13.15;;;;;;;31.32;33.76;100216.91;5023594;28;20412;-72
2021/07/25 07:57:20;;;;;;;13.63;12.02;;;;;;;30.86;35.04;100234.78;5020486;28;20179;-72
2021/07/25 07:59:48;;;;;;;19.20;12.10;;;;;;;32.19;32.49;100233.22;5027877;28;20149;-72
2021/07/25 08:02:16;;;;;;;15.45;11.15;;;;;;;32.98;31.79;100235.25;5020825;28;20072;-71
2021/07/25 08:04:43;;;;;;;15.68;11.52;;;;;;;34.54;29.52;100234.16;5028160;28;20081;-72
2021/07/25 08:07:10;;;;;;;13.20;11.32;;;;;;;35.50;28.11;100236.06;5028230;28;20058;-70
2021/07/25 08:09:37;;;;;;;20.05;12.75;;;;;;;33.91;30.03;100227.34;5027563;28;20053;-72
2021/07/25 08:12:06;;;;;;;13.32;11.60;;;;;;;32.62;32.04;100233.78;5007504;28;20053;-73
2021/07/25 08:14:33;;;;;;;17.80;11.98;;;;;;;32.20;33.33;100232.16;5019263;28;20137;-73
2021/07/25 08:17:01;;;;;;;17.83;11.48;;;;;;;33.35;31.37;100223.84;5024441;28;20140;-73
2021/07/25 08:19:28;;;;;;;12.43;11.23;;;;;;;33.45;31.35;100230.28;5020051;28;20054;-73
2021/07/25 08:21:56;;;;;;;18.20;12.00;;;;;;;33.60;31.35;100226.16;5015385;28;20535;-73
2021/07/25 08:24:23;;;;;;;13.90;11.15;;;;;;;34.40;29.71;100224.66;5024529;28;20068;-71
2021/07/25 08:26:50;;;;;;;14.35;12.07;;;;;;;35.79;28.22;100222.78;5002332;28;20613;-71
2021/07/25 08:29:17;;;;;;;13.90;12.43;;;;;;;36.97;26.43;100226.69;5023490;28;20523;-71
2021/07/25 08:31:44;;;;;;;15.02;11.60;;;;;;;37.66;25.40;100220.56;5010097;28;20103;-72
2021/07/25 08:34:12;;;;;;;17.42;12.82;;;;;;;37.56;25.64;100228.84;4984428;28;20060;-72
2021/07/25 08:36:39;;;;;;;16.33;12.27;;;;;;;36.66;26.50;100229.41;5000876;28;20049;-72
2021/07/25 08:39:06;;;;;;;16.05;11.85;;;;;;;35.87;27.14;100219.53;5016324;28;20220;-72
2021/07/25 08:41:56;;;;;;;22.33;12.75;;;;;;;34.12;29.76;100228.47;5007578;28;20483;-72
2021/07/25 08:44:42;;;;;;;16.67;11.80;;;;;;;32.42;32.85;100226.06;5011404;28;20099;-72
2021/07/25 08:47:17;;;;;;;13.98;12.50;;;;;;;32.40;33.54;100231.75;5021850;28;20061;-72
2021/07/25 08:50:00;;;;;;;13.57;11.35;;;;;;;32.43;32.82;100233.19;4970892;28;20096;-71
2021/07/25 08:52:32;;;;;;;16.20;12.77;;;;;;;32.20;34.31;100228.63;5021901;28;20053;-71
2021/07/25 08:55:02;;;;;;;14.20;12.70;;;;;;;31.99;34.57;100230.09;5014113;28;20092;-72
2021/07/25 08:57:31;;;;;;;14.18;11.80;;;;;;;31.85;34.48;100228.72;5022555;28;20408;-72
2021/07/25 08:59:59;;;;;;;13.55;11.38;;;;;;;31.16;36.43;100215.69;4991085;28;20145;-72
2021/07/25 09:02:28;;;;;;;15.45;12.95;;;;;;;31.13;35.92;100218.88;5021256;28;20064;-72
2021/07/25 09:04:57;;;;;;;13.48;11.68;;;;;;;30.84;36.38;100217.88;4984472;28;20118;-72
2021/07/25 09:07:26;;;;;;;16.33;12.32;;;;;;;30.36;37.54;100218.78;5004844;28;20155;-72
2021/07/25 09:10:06;;;;;;;13.60;12.20;;;;;;;30.09;37.79;100218.28;5022864;28;20165;-71
2021/07/25 09:12:34;;;;;;;14.35;11.60;;;;;;;29.56;38.64;100218.06;4988219;28;20061;-71
2021/07/25 09:15:07;;;;;;;14.75;12.30;;;;;;;29.73;39.02;100217.25;5007154;28;20075;-71
2021/07/25 09:17:35;;;;;;;18.65;11.98;;;;;;;29.31;39.43;100205.31;5008178;28;20089;-72
2021/07/25 09:20:15;;;;;;;20.80;11.77;;;;;;;29.57;39.23;100212.41;5010668;28;20049;-72
2021/07/25 09:22:48;;;;;;;14.45;12.98;;;;;;;29.48;39.25;100211.00;5000634;28;20046;-71
2021/07/25 09:25:21;;;;;;;14.90;11.82;;;;;;;29.46;39.49;100211.25;5017385;28;20097;-72
2021/07/25 09:28:08;;;;;;;15.43;12.23;;;;;;;29.35;39.53;100208.41;5011745;28;20545;-71
2021/07/25 09:30:35;;;;;;;15.73;11.48;;;;;;;29.09;40.40;100212.19;4998565;28;20065;-71
2021/07/25 09:33:24;;;;;;;18.40;11.27;;;;;;;28.94;40.73;100204.38;5024062;28;20551;-72
2021/07/25 09:35:51;;;;;;;17.25;10.95;;;;;;;29.41;40.41;100205.66;5007956;28;20158;-72
2021/07/25 09:38:19;;;;;;;13.43;11.45;;;;;;;29.84;39.15;100212.94;4999847;28;20049;-70
2021/07/25 09:40:47;;;;;;;14.32;11.65;;;;;;;29.96;38.42;100213.84;4984280;28;20530;-72
2021/07/25 09:43:20;;;;;;;15.75;11.57;;;;;;;30.07;38.20;100206.81;5025640;28;20063;-71
2021/07/25 09:45:50;;;;;;;15.18;12.27;;;;;;;30.34;37.37;100201.06;5019463;28;20049;-71
2021/07/25 09:48:18;;;;;;;15.07;11.93;;;;;;;30.41;37.42;100194.47;5003411;28;20141;-72
2021/07/25 09:50:46;;;;;;;15.32;11.80;;;;;;;30.42;37.14;100193.41;5007966;28;20445;-71
2021/07/25 09:53:14;;;;;;;14.02;11.88;;;;;;;30.41;37.03;100204.50;4999139;28;20045;-71
2021/07/25 09:55:42;;;;;;;13.60;11.57;;;;;;;30.22;37.32;100193.69;5002375;28;20046;-72
2021/07/25 09:58:09;;;;;;;18.02;12.70;;;;;;;30.11;37.16;100204.47;5019310;28;20072;-71
2021/07/25 10:00:43;;;;;;;15.82;12.40;;;;;;;30.21;37.72;100204.78;4990672;28;20084;-71
2021/07/25 10:03:32;;;;;;;15.38;11.43;;;;;;;30.06;37.64;100204.31;5011709;28;20086;-71
2021/07/25 10:06:01;;;;;;;16.75;11.70;;;;;;;30.28;37.05;100202.81;5017795;28;20060;-71
2021/07/25 10:08:28;;;;;;;14.48;11.57;;;;;;;29.83;37.74;100195.00;4979924;28;20049;-72
2021/07/25 10:10:57;;;;;;;12.18;10.40;;;;;;;30.24;37.83;100188.84;4989560;28;20477;-72
2021/07/25 10:13:28;;;;;;;17.02;10.95;;;;;;;30.49;37.45;100196.03;5017673;28;20371;-71
2021/07/25 10:15:59;;;;;;;17.80;12.10;;;;;;;30.52;37.26;100184.69;5025356;28;20053;-72
2021/07/25 10:18:33;;;;;;;15.60;12.18;;;;;;;30.41;37.04;100188.22;5007702;28;20369;-72
2021/07/25 10:21:01;;;;;;;18.50;12.27;;;;;;;30.21;37.36;100186.59;4998499;28;20374;-71
2021/07/25 10:23:32;;;;;;;13.23;11.82;;;;;;;30.15;37.82;100186.69;5000820;28;20128;-71
2021/07/25 10:26:03;;;;;;;13.55;10.70;;;;;;;30.17;37.68;100188.13;5015669;28;20534;-71
2021/07/25 10:28:30;;;;;;;17.35;12.02;;;;;;;30.04;37.92;100191.00;5016832;28;20085;-72
2021/07/25 10:30:59;;;;;;;14.85;11.20;;;;;;;29.90;38.02;100187.63;5009207;28;20045;-73
2021/07/25 10:33:28;;;;;;;14.40;11.70;;;;;;;29.88;38.29;100184.28;4997837;28;20144;-72
2021/07/25 10:35:59;;;;;;;16.23;12.68;;;;;;;29.99;38.00;100188.97;4998655;28;20053;-71
2021/07/25 10:38:26;;;;;;;15.25;12.40;;;;;;;29.77;39.13;100191.31;4960941;28;20050;-73
2021/07/25 10:40:53;;;;;;;15.90;12.48;;;;;;;29.79;38.58;100177.50;5009280;28;20133;-71
2021/07/25 10:43:23;;;;;;;15.95;12.38;;;;;;;29.96;38.37;100188.59;4997781;28;20100;-71
2021/07/25 10:46:17;;;;;;;14.48;11.82;;;;;;;29.94;38.86;100185.25;4993349;28;20057;-71
2021/07/25 10:49:09;;;;;;;15.98;12.95;;;;;;;29.92;39.09;100188.22;4992541;28;20064;-72
2021/07/25 10:51:53;;;;;;;13.15;11.45;;;;;;;29.90;39.15;100182.19;4999329;28;20516;-73
2021/07/25 10:54:23;;;;;;;13.50;11.63;;;;;;;30.12;38.92;100184.41;4979556;28;20539;-71
2021/07/25 10:57:00;;;;;;;16.80;12.93;;;;;;;30.13;39.06;100186.06;5012121;28;20190;-71
2021/07/25 10:59:46;;;;;;;18.58;13.45;;;;;;;30.20;38.04;100194.97;4996115;28;20054;-71
2021/07/25 11:02:39;;;;;;;16.80;12.57;;;;;;;30.34;37.89;100192.91;5020200;28;20054;-70
2021/07/25 11:05:07;;;;;;;15.68;11.98;;;;;;;30.36;38.02;100193.53;4996821;28;20042;-71
2021/07/25 11:07:35;;;;;;;15.88;12.18;;;;;;;30.20;38.09;100189.53;5011740;28;20053;-71
2021/07/25 11:10:07;;;;;;;16.10;12.07;;;;;;;30.31;38.02;100188.78;5019952;28;20058;-70
2021/07/25 11:12:54;;;;;;;14.90;11.98;;;;;;;30.54;37.32;100193.47;4989934;28;20418;-71
2021/07/25 11:15:32;;;;;;;13.27;11.88;;;;;;;30.74;36.83;100177.69;5012599;28;20113;-71
2021/07/25 11:18:06;;;;;;;16.73;11.63;;;;;;;30.76;37.28;100191.88;5004413;28;20136;-71
2021/07/25 11:20:36;;;;;;;16.40;11.90;;;;;;;30.88;37.51;100194.59;5023261;28;20085;-71
2021/07/25 11:23:06;;;;;;;15.55;12.48;;;;;;;30.45;37.65;100186.69;5025112;28;20049;-70